TW-0013 weather

Jiali Shan Helipad
Jiali Shan, Miaoli County, Taiwan

Public forecast

Using degrees Celsius for public forecast. Weather courtesy of forecast.io.

Closest aviation weather report (METAR) to Jiali Shan Helipad

Closest report is Taichung Ching Chuang Kang Airport, 35.1 nm (64.9 km) WSW. Retrieved 2020/02/17 06:30 UTC (0 seconds ago):

RCMQ 170630Z 02018G28KT 9999 FEW012 SCT060 14/04 Q1022 NOSIG RMK A3020

Closest aviation forecast (TAF) to Jiali Shan Helipad

Forecast is more than 12 hours old.

Closest forecast is Hsinchu Air Base, 26.3 nm (48.7 km) NW. Retrieved 2015/08/01 06:46 UTC (5 years ago):

TAF RCPO 010500Z 0106/0206 27010KT 9999 FEW020 TX33/0106Z TN27/0120Z BECMG 0111/0114 21004KT TEMPO 0118/0123 FEW020 BKN120 BECMG 0202/0205 33010KT